Terminal Aerodrome Forecast
Issued by NWS

Home | Current Version | Previous Version | Text Only | Print | Product List | Glossary On
Versions: 1 2 3 4 5 6 7 8 9 10 11 12 13 14 15
052
FTUS45 KTFX 120542
TAFGTF
TAF
KGTF 120542Z 1206/1306 VRB05KT P6SM BKN120
     FM120900 VRB05KT P6SM SCT040 BKN060
     FM121300 12010KT P6SM VCSH SCT025 OVC040
     FM121600 21015KT P6SM SCT060 BKN090
     FM122200 24012KT P6SM BKN120=

USA.gov is the U.S. government's official web portal to all federal, state and local government web resources and services.